Time;durP1;ratioP1;P1;durP2;ratioP2;P2;SDS_P1;SDS_P2;PMS_P1;PMS_P2;Temp;Humidity;BMP_temperature;BMP_pressure;BME280_temperature;BME280_humidity;BME280_pressure;Samples;Min_cycle;Max_cycle;Signal;HPM_P1;HPM_P2
2023/08/15 00:00:25;;;;;;;3.40;3.20;;;;;;;19.68;100.00;100301.70;105375;1267;61232;-74
2023/08/15 00:02:52;;;;;;;5.80;3.60;;;;;;;19.65;100.00;100301.11;105367;1271;74685;-74
2023/08/15 00:05:18;;;;;;;5.30;3.70;;;;;;;19.63;100.00;100301.06;105390;1267;71175;-74
2023/08/15 00:08:00;;;;;;;5.90;3.10;;;;;;;19.61;100.00;100302.10;106208;1267;72022;-74
2023/08/15 00:10:27;;;;;;;4.60;3.30;;;;;;;19.61;100.00;100302.30;105516;1267;61212;-74
2023/08/15 00:12:54;;;;;;;6.90;3.50;;;;;;;19.62;100.00;100305.05;104998;1271;61293;-74
2023/08/15 00:15:21;;;;;;;7.70;4.00;;;;;;;19.65;100.00;100304.52;105458;1267;74065;-74
2023/08/15 00:17:47;;;;;;;7.50;3.10;;;;;;;19.64;100.00;100304.39;105581;1267;71197;-74
2023/08/15 00:20:14;;;;;;;6.10;3.50;;;;;;;19.63;100.00;100305.52;104975;1267;73166;-73
2023/08/15 00:22:41;;;;;;;5.70;3.40;;;;;;;19.60;100.00;100308.21;105200;1267;61287;-72
2023/08/15 00:25:08;;;;;;;5.00;3.10;;;;;;;19.57;100.00;100309.09;105363;1267;61267;-74
2023/08/15 00:27:35;;;;;;;7.20;3.30;;;;;;;19.54;100.00;100309.27;105429;1267;74756;-74
2023/08/15 00:30:04;;;;;;;4.60;3.20;;;;;;;19.51;100.00;100313.89;105212;1267;71248;-74
2023/08/15 00:32:35;;;;;;;5.00;3.20;;;;;;;19.48;100.00;100315.33;104944;1267;71511;-74
2023/08/15 00:35:05;;;;;;;5.90;3.40;;;;;;;19.45;100.00;100314.98;106024;1267;61465;-74
2023/08/15 00:37:33;;;;;;;5.10;3.50;;;;;;;19.40;100.00;100313.84;105032;1267;61408;-74
2023/08/15 00:40:00;;;;;;;3.80;3.50;;;;;;;19.38;100.00;100318.95;104985;1267;74801;-73
2023/08/15 00:42:27;;;;;;;3.80;3.50;;;;;;;19.37;100.00;100322.05;105640;1267;69662;-73
2023/08/15 00:44:54;;;;;;;5.50;4.00;;;;;;;19.35;100.00;100319.84;104985;1267;73114;-75
2023/08/15 00:47:22;;;;;;;6.30;3.10;;;;;;;19.34;100.00;100322.40;105046;1267;61745;-75
2023/08/15 00:49:49;;;;;;;5.50;3.80;;;;;;;19.34;100.00;100324.56;105020;1267;61338;-75
2023/08/15 00:52:16;;;;;;;10.80;3.60;;;;;;;19.30;100.00;100325.78;104896;1267;74781;-77
2023/08/15 00:54:46;;;;;;;5.30;3.00;;;;;;;19.28;100.00;100327.72;105672;1268;71046;-74
2023/08/15 00:57:13;;;;;;;5.80;3.70;;;;;;;19.25;100.00;100325.92;104939;1267;72532;-75
2023/08/15 00:59:44;;;;;;;10.80;4.10;;;;;;;19.23;100.00;100325.69;104892;1268;61283;-73
2023/08/15 01:02:11;;;;;;;6.20;3.80;;;;;;;19.21;100.00;100323.46;105361;1271;61726;-73
2023/08/15 01:04:39;;;;;;;5.10;3.60;;;;;;;19.20;100.00;100331.20;104899;1267;74521;-73
2023/08/15 01:07:06;;;;;;;6.80;3.40;;;;;;;19.19;100.00;100325.55;104811;1267;71198;-73
2023/08/15 01:09:32;;;;;;;6.50;3.60;;;;;;;19.19;100.00;100326.23;105233;1267;72563;-73
2023/08/15 01:12:07;;;;;;;4.00;3.50;;;;;;;19.19;100.00;100324.65;105760;1267;61262;-74
2023/08/15 01:14:41;;;;;;;10.80;4.20;;;;;;;19.17;100.00;100324.27;106422;1267;61251;-74
2023/08/15 01:17:10;;;;;;;13.70;3.40;;;;;;;19.16;100.00;100319.35;105005;1267;74768;-74
2023/08/15 01:19:41;;;;;;;10.40;4.20;;;;;;;19.15;100.00;100316.71;105667;1268;69977;-74
2023/08/15 01:22:15;;;;;;;13.40;3.90;;;;;;;19.13;100.00;100316.30;104939;1267;72999;-74
2023/08/15 01:24:43;;;;;;;4.00;3.60;;;;;;;19.11;100.00;100318.73;105134;1267;61341;-74
2023/08/15 01:27:11;;;;;;;6.60;3.50;;;;;;;19.08;100.00;100319.77;104792;1269;61316;-74
2023/08/15 01:29:37;;;;;;;4.50;3.60;;;;;;;19.07;100.00;100320.94;105362;1271;73174;-74
2023/08/15 01:32:17;;;;;;;11.30;4.10;;;;;;;19.06;100.00;100319.73;105688;1267;70004;-74
2023/08/15 01:34:49;;;;;;;9.00;3.70;;;;;;;19.06;100.00;100319.74;105007;1268;72024;-74
2023/08/15 01:37:35;;;;;;;6.20;3.70;;;;;;;19.05;100.00;100320.66;105308;1269;61284;-74
2023/08/15 01:40:02;;;;;;;5.30;3.70;;;;;;;19.04;100.00;100320.20;105420;1267;61300;-74
2023/08/15 01:42:30;;;;;;;5.20;3.30;;;;;;;19.03;100.00;100321.85;105045;1271;74689;-74
2023/08/15 01:44:56;;;;;;;7.30;3.40;;;;;;;19.01;100.00;100317.02;104984;1271;69817;-76
2023/08/15 01:47:23;;;;;;;5.80;3.70;;;;;;;18.98;100.00;100317.66;105011;1267;61189;-74
2023/08/15 01:49:50;;;;;;;9.30;4.10;;;;;;;18.98;100.00;100315.36;105631;1269;62106;-74
2023/08/15 01:52:16;;;;;;;10.70;4.10;;;;;;;18.99;100.00;100314.77;104967;1267;61309;-74
2023/08/15 01:54:43;;;;;;;14.30;3.80;;;;;;;19.01;100.00;100318.74;105504;1267;75001;-74
2023/08/15 01:57:10;;;;;;;6.20;4.00;;;;;;;19.05;100.00;100319.41;105647;1266;70090;-74
2023/08/15 01:59:38;;;;;;;10.20;4.30;;;;;;;19.08;100.00;100318.36;105037;1267;72418;-74
2023/08/15 02:02:06;;;;;;;8.60;4.40;;;;;;;19.11;100.00;100318.02;104956;1267;61293;-74
2023/08/15 02:04:33;;;;;;;12.50;4.10;;;;;;;19.13;100.00;100315.21;104976;1267;61294;-75
2023/08/15 02:07:00;;;;;;;5.20;4.30;;;;;;;19.14;100.00;100322.45;104953;1267;61615;-74
2023/08/15 02:09:27;;;;;;;4.20;3.60;;;;;;;19.14;100.00;100315.88;105893;1267;71630;-73
2023/08/15 02:11:53;;;;;;;9.20;3.70;;;;;;;19.15;100.00;100315.30;104980;1271;71006;-73
2023/08/15 02:14:20;;;;;;;4.70;3.30;;;;;;;19.14;100.00;100311.98;104983;1267;61260;-73
2023/08/15 02:16:47;;;;;;;6.60;3.20;;;;;;;19.09;100.00;100311.02;104996;1268;61204;-74
2023/08/15 02:19:14;;;;;;;4.20;3.00;;;;;;;19.04;100.00;100315.21;105782;1269;74468;-74
2023/08/15 02:21:41;;;;;;;5.70;3.70;;;;;;;19.00;100.00;100310.67;105007;1267;61371;-75
2023/08/15 02:24:07;;;;;;;7.70;3.80;;;;;;;18.95;100.00;100318.22;104913;1267;61392;-74
2023/08/15 02:26:35;;;;;;;4.70;3.40;;;;;;;18.90;100.00;100313.84;104944;1271;61373;-75
2023/08/15 02:29:03;;;;;;;9.00;3.90;;;;;;;18.86;100.00;100315.14;106432;1271;61286;-74
2023/08/15 02:31:30;;;;;;;7.70;3.80;;;;;;;18.83;100.00;100319.20;105198;1267;74700;-74
2023/08/15 02:33:57;;;;;;;7.00;4.10;;;;;;;18.80;100.00;100313.85;104995;1271;69626;-74
2023/08/15 02:36:23;;;;;;;5.10;3.90;;;;;;;18.76;100.00;100319.08;104942;1267;1003886;-73
2023/08/15 02:38:50;;;;;;;5.00;3.90;;;;;;;18.72;100.00;100320.16;106007;1266;61347;-74
2023/08/15 02:41:17;;;;;;;8.60;4.10;;;;;;;18.69;100.00;100321.04;104942;1269;61285;-74
2023/08/15 02:43:45;;;;;;;6.80;4.00;;;;;;;18.67;100.00;100323.12;104982;1271;73621;-74
2023/08/15 02:46:11;;;;;;;5.80;4.00;;;;;;;18.64;100.00;100322.38;104964;1267;69742;-74
2023/08/15 02:48:38;;;;;;;4.10;3.70;;;;;;;18.63;100.00;100329.23;105936;1267;71672;-74
2023/08/15 02:51:07;;;;;;;5.60;3.50;;;;;;;18.61;100.00;100333.42;104965;1267;61350;-73
2023/08/15 02:53:35;;;;;;;10.10;4.30;;;;;;;18.59;100.00;100333.70;106085;1267;61189;-74
2023/08/15 02:56:01;;;;;;;4.90;3.90;;;;;;;18.57;100.00;100336.11;105657;1268;74714;-74
2023/08/15 02:58:28;;;;;;;6.50;4.10;;;;;;;18.55;100.00;100335.65;105323;1271;71427;-74
2023/08/15 03:00:55;;;;;;;5.20;3.60;;;;;;;18.54;100.00;100338.92;105287;1268;72575;-74
2023/08/15 03:03:22;;;;;;;8.60;4.20;;;;;;;18.53;100.00;100345.90;105322;1269;61379;-73
2023/08/15 03:05:49;;;;;;;6.00;3.90;;;;;;;18.52;100.00;100352.00;104942;1267;61283;-74
2023/08/15 03:08:15;;;;;;;15.20;3.90;;;;;;;18.51;100.00;100352.56;106061;1268;74597;-74
2023/08/15 03:10:42;;;;;;;5.70;3.70;;;;;;;18.51;100.00;100355.94;104980;1267;71116;-74
2023/08/15 03:13:10;;;;;;;7.30;4.00;;;;;;;18.51;100.00;100357.89;104972;1267;71200;-74
2023/08/15 03:15:37;;;;;;;6.80;4.40;;;;;;;18.52;100.00;100362.16;105331;1267;61384;-74
2023/08/15 03:18:05;;;;;;;6.30;4.30;;;;;;;18.51;100.00;100366.27;106438;1268;61202;-74
2023/08/15 03:20:32;;;;;;;7.30;4.00;;;;;;;18.50;100.00;100366.34;104980;1271;74658;-74
2023/08/15 03:22:59;;;;;;;5.20;4.00;;;;;;;18.50;100.00;100371.11;105306;1267;70947;-74
2023/08/15 03:25:26;;;;;;;5.60;3.20;;;;;;;18.50;100.00;100371.29;104773;1270;61288;-74
2023/08/15 03:27:54;;;;;;;6.90;3.70;;;;;;;18.51;100.00;100370.86;106021;1267;62114;-74
2023/08/15 03:30:21;;;;;;;6.80;3.50;;;;;;;18.53;100.00;100369.89;105340;1267;61366;-74
2023/08/15 03:32:48;;;;;;;8.30;3.80;;;;;;;18.54;100.00;100370.70;104948;1267;74671;-74
2023/08/15 03:35:15;;;;;;;4.20;3.80;;;;;;;18.55;100.00;100371.75;105598;1268;70932;-74
2023/08/15 03:37:41;;;;;;;8.60;3.90;;;;;;;18.57;100.00;100378.36;104886;1267;72477;-74
2023/08/15 03:40:08;;;;;;;6.50;4.70;;;;;;;18.59;100.00;100378.13;104981;1267;61746;-73
2023/08/15 03:42:35;;;;;;;8.80;4.60;;;;;;;18.61;100.00;100385.48;105304;1267;61335;-73
2023/08/15 03:45:02;;;;;;;10.50;4.10;;;;;;;18.64;100.00;100392.59;106224;1271;74640;-74
2023/08/15 03:47:32;;;;;;;9.50;4.20;;;;;;;18.68;100.00;100395.73;104222;1271;1003429;-73
2023/08/15 03:49:59;;;;;;;6.20;4.10;;;;;;;18.73;100.00;100398.88;104999;1268;72406;-74
2023/08/15 03:52:26;;;;;;;5.90;4.40;;;;;;;18.77;100.00;100399.30;105467;1267;62373;-73
2023/08/15 03:54:53;;;;;;;15.10;5.90;;;;;;;18.84;100.00;100397.59;106658;1267;61292;-74
2023/08/15 03:57:19;;;;;;;9.40;4.40;;;;;;;18.89;100.00;100392.29;105020;1271;74618;-73
2023/08/15 03:59:47;;;;;;;12.70;6.40;;;;;;;18.96;100.00;100391.76;105048;1267;71138;-73
2023/08/15 04:02:13;;;;;;;18.20;7.20;;;;;;;19.02;100.00;100388.56;105667;1267;72565;-74
2023/08/15 04:04:40;;;;;;;19.90;8.30;;;;;;;19.09;100.00;100386.04;104902;1269;61709;-74
2023/08/15 04:07:07;;;;;;;14.60;7.80;;;;;;;19.18;100.00;100386.82;105052;1267;60208;-74
2023/08/15 04:09:33;;;;;;;17.90;7.80;;;;;;;19.24;100.00;100388.95;105355;1267;73404;-74
2023/08/15 04:12:00;;;;;;;22.80;8.60;;;;;;;19.31;100.00;100387.81;105693;1268;61162;-73
2023/08/15 04:14:27;;;;;;;20.90;8.70;;;;;;;19.39;100.00;100382.92;104941;1267;72470;-74
2023/08/15 04:16:54;;;;;;;16.80;8.40;;;;;;;19.48;100.00;100389.52;105034;1267;61745;-74
2023/08/15 04:19:21;;;;;;;13.30;8.30;;;;;;;19.58;100.00;100386.84;106302;1267;61267;-74
2023/08/15 04:21:49;;;;;;;12.90;8.10;;;;;;;19.67;100.00;100381.30;105021;1268;73499;-74
2023/08/15 04:24:19;;;;;;;16.10;8.30;;;;;;;19.77;100.00;100384.89;104992;1269;70041;-74
2023/08/15 04:26:45;;;;;;;21.30;9.00;;;;;;;19.86;100.00;100383.95;104904;1269;72548;-73
2023/08/15 04:29:12;;;;;;;11.40;7.80;;;;;;;19.95;100.00;100382.52;104903;1268;61446;-74
2023/08/15 04:31:39;;;;;;;20.50;8.40;;;;;;;20.04;100.00;100385.58;105785;1268;61312;-73
2023/08/15 04:34:06;;;;;;;26.80;8.90;;;;;;;20.13;100.00;100389.17;105111;1267;74546;-74
2023/08/15 04:36:34;;;;;;;16.30;8.20;;;;;;;20.21;100.00;100387.77;105054;1271;71230;-75
2023/08/15 04:39:01;;;;;;;17.40;7.70;;;;;;;20.31;100.00;100390.02;105010;1267;71332;-74
2023/08/15 04:41:29;;;;;;;17.50;8.10;;;;;;;20.42;100.00;100386.67;105010;1269;61322;-74
2023/08/15 04:43:55;;;;;;;18.80;8.30;;;;;;;20.53;100.00;100384.17;104991;1269;61934;-74
2023/08/15 04:46:22;;;;;;;15.10;8.80;;;;;;;20.65;100.00;100387.40;105236;1271;74646;-74
2023/08/15 04:48:49;;;;;;;13.40;8.10;;;;;;;20.75;100.00;100387.98;106090;1267;70862;-75
2023/08/15 04:51:15;;;;;;;17.60;7.70;;;;;;;20.85;100.00;100389.89;104965;1267;72354;-74
2023/08/15 04:53:43;;;;;;;16.10;6.30;;;;;;;20.95;100.00;100388.52;104978;1267;61265;-75
2023/08/15 04:56:11;;;;;;;15.50;6.50;;;;;;;21.06;100.00;100386.77;104944;1271;61212;-74
2023/08/15 04:58:38;;;;;;;11.50;6.40;;;;;;;21.18;100.00;100384.04;106141;1269;73360;-74
2023/08/15 05:01:05;;;;;;;13.10;5.70;;;;;;;21.29;100.00;100384.23;104137;1268;1002743;-74
2023/08/15 05:03:32;;;;;;;15.00;6.70;;;;;;;21.38;100.00;100381.86;104905;1268;72601;-74
2023/08/15 05:05:59;;;;;;;16.90;6.30;;;;;;;21.47;100.00;100386.63;104809;1274;61409;-74
2023/08/15 05:08:26;;;;;;;22.80;7.40;;;;;;;21.56;100.00;100382.64;105651;1273;61307;-74
2023/08/15 05:10:54;;;;;;;17.80;7.40;;;;;;;21.66;100.00;100382.35;105723;1272;61463;-74
2023/08/15 05:13:20;;;;;;;23.50;7.40;;;;;;;21.77;100.00;100379.48;104928;1267;69685;-74
2023/08/15 05:15:47;;;;;;;27.00;10.40;;;;;;;21.86;100.00;100380.42;105351;1267;72532;-74
2023/08/15 05:18:16;;;;;;;18.70;9.30;;;;;;;21.96;100.00;100376.39;104929;1269;61143;-74
2023/08/15 05:20:45;;;;;;;28.60;10.80;;;;;;;22.06;100.00;100374.61;105165;1269;61350;-74
2023/08/15 05:23:12;;;;;;;35.10;10.50;;;;;;;22.16;100.00;100369.64;104913;1267;73153;-74
2023/08/15 05:25:44;;;;;;;21.90;10.10;;;;;;;22.26;100.00;100363.44;106661;1267;71048;-73
2023/08/15 05:28:11;;;;;;;23.50;10.00;;;;;;;22.36;100.00;100362.93;105341;1268;72486;-73
2023/08/15 05:30:38;;;;;;;21.80;9.00;;;;;;;22.48;100.00;100374.21;104916;1269;61875;-73
2023/08/15 05:33:05;;;;;;;25.70;8.50;;;;;;;22.60;100.00;100363.55;105123;1273;61278;-73
2023/08/15 05:35:32;;;;;;;17.10;8.00;;;;;;;22.72;100.00;100361.64;105649;1267;73565;-73
2023/08/15 05:37:59;;;;;;;17.30;6.80;;;;;;;22.83;100.00;100361.40;105017;1269;69832;-75
2023/08/15 05:40:26;;;;;;;23.00;7.30;;;;;;;22.94;100.00;100357.73;106032;1269;72551;-75
2023/08/15 05:42:52;;;;;;;19.80;7.50;;;;;;;23.05;100.00;100355.67;105333;1269;61272;-74
2023/08/15 05:45:19;;;;;;;19.10;7.40;;;;;;;23.16;100.00;100350.94;105729;1267;61189;-75
2023/08/15 05:47:46;;;;;;;17.50;7.00;;;;;;;23.26;100.00;100348.91;105714;1267;74629;-73
2023/08/15 05:50:13;;;;;;;22.10;6.90;;;;;;;23.36;100.00;100351.03;105719;1267;61423;-74
2023/08/15 05:52:39;;;;;;;16.10;6.00;;;;;;;23.48;100.00;100350.91;105381;1268;72682;-75
2023/08/15 05:55:07;;;;;;;18.40;6.40;;;;;;;23.59;100.00;100349.02;105700;1267;61375;-75
2023/08/15 05:57:33;;;;;;;18.40;6.70;;;;;;;23.72;100.00;100351.77;105558;1271;61283;-76
2023/08/15 06:00:00;;;;;;;19.60;6.00;;;;;;;23.87;100.00;100353.38;105683;1269;74562;-77
2023/08/15 06:02:31;;;;;;;14.70;5.70;;;;;;;23.99;100.00;100356.50;105846;1267;70098;-71
2023/08/15 06:04:58;;;;;;;15.00;5.50;;;;;;;24.12;100.00;100356.27;106189;1267;71214;-73
2023/08/15 06:07:25;;;;;;;14.10;5.60;;;;;;;24.23;100.00;100354.45;105426;1268;61376;-75
2023/08/15 06:09:52;;;;;;;17.40;5.50;;;;;;;24.34;100.00;100352.57;105205;1267;61251;-73
2023/08/15 06:12:18;;;;;;;15.20;5.70;;;;;;;24.45;100.00;100349.70;104966;1271;73220;-74
2023/08/15 06:14:45;;;;;;;20.10;5.90;;;;;;;24.57;100.00;100351.34;105729;1271;71126;-75
2023/08/15 06:17:12;;;;;;;15.40;5.20;;;;;;;24.68;100.00;100346.30;104994;1267;72694;-77
2023/08/15 06:19:39;;;;;;;14.60;6.00;;;;;;;24.79;100.00;100347.55;105152;1269;61303;-76
2023/08/15 06:22:05;;;;;;;15.30;6.20;;;;;;;24.92;100.00;100342.44;105117;1269;61252;-74
2023/08/15 06:24:34;;;;;;;17.50;6.20;;;;;;;25.06;100.00;100341.77;105148;1268;75201;-75
2023/08/15 06:27:01;;;;;;;19.50;5.30;;;;;;;25.18;100.00;100335.91;106073;1267;71213;-75
2023/08/15 06:29:29;;;;;;;11.30;4.90;;;;;;;25.31;100.00;100339.22;105829;1267;72663;-75
2023/08/15 06:31:57;;;;;;;12.70;6.10;;;;;;;25.44;100.00;100340.30;105296;1269;61387;-75
2023/08/15 06:34:24;;;;;;;13.70;4.60;;;;;;;25.57;100.00;100338.67;105642;1271;61266;-75
2023/08/15 06:36:52;;;;;;;13.20;4.60;;;;;;;25.68;100.00;100333.39;105688;1271;74706;-74
2023/08/15 06:39:19;;;;;;;22.80;5.10;;;;;;;25.79;100.00;100332.87;105926;1271;69627;-75
2023/08/15 06:41:45;;;;;;;13.20;5.00;;;;;;;25.90;100.00;100336.59;104988;1268;72703;-75
2023/08/15 06:44:12;;;;;;;8.10;5.00;;;;;;;26.02;100.00;100332.38;105343;1269;61359;-75
2023/08/15 06:46:39;;;;;;;22.00;4.30;;;;;;;26.13;100.00;100329.77;105397;1268;61321;-75
2023/08/15 06:49:06;;;;;;;9.10;3.80;;;;;;;26.23;100.00;100329.93;105692;1271;74476;-75
2023/08/15 06:51:32;;;;;;;10.20;3.60;;;;;;;26.35;100.00;100332.15;105739;1269;69269;-75
2023/08/15 06:53:59;;;;;;;7.80;4.00;;;;;;;26.49;100.00;100329.01;105715;1271;61372;-75
2023/08/15 06:56:27;;;;;;;8.60;2.90;;;;;;;26.61;100.00;100325.94;105022;1271;61285;-74
2023/08/15 06:58:54;;;;;;;7.80;3.50;;;;;;;26.73;100.00;100321.47;105624;1268;61346;-73
2023/08/15 07:01:20;;;;;;;6.00;3.10;;;;;;;26.85;100.00;100313.92;105945;1267;74136;-74
2023/08/15 07:03:47;;;;;;;3.90;2.80;;;;;;;26.98;100.00;100316.70;105006;1269;71140;-74
2023/08/15 07:06:14;;;;;;;10.30;3.30;;;;;;;27.09;100.00;100314.61;105296;1268;72707;-76
2023/08/15 07:08:42;;;;;;;5.80;3.10;;;;;;;27.20;100.00;100311.66;106064;1271;61157;-74
2023/08/15 07:11:08;;;;;;;8.90;2.90;;;;;;;27.31;100.00;100314.41;106134;1268;61383;-73
2023/08/15 07:13:35;;;;;;;10.20;3.00;;;;;;;27.43;100.00;100315.45;105355;1268;73231;-73
2023/08/15 07:16:02;;;;;;;5.80;2.50;;;;;;;27.55;100.00;100316.18;105668;1268;71833;-73
2023/08/15 07:18:29;;;;;;;15.00;3.60;;;;;;;27.67;100.00;100320.44;105748;1269;72993;-76
2023/08/15 07:20:56;;;;;;;7.60;3.30;;;;;;;27.80;100.00;100319.81;105499;1269;61377;-76
2023/08/15 07:23:22;;;;;;;5.50;2.70;;;;;;;27.88;100.00;100318.46;105346;1269;61310;-74
2023/08/15 07:25:49;;;;;;;6.20;3.40;;;;;;;27.95;100.00;100316.01;105645;1268;74521;-72
2023/08/15 07:28:16;;;;;;;9.30;3.50;;;;;;;28.05;100.00;100314.23;105944;1269;63132;-74
2023/08/15 07:30:45;;;;;;;16.00;5.00;;;;;;;28.15;100.00;100316.35;105656;1269;63739;-74
2023/08/15 07:33:13;;;;;;;15.20;4.60;;;;;;;28.26;100.00;100316.03;106129;1268;61267;-74
2023/08/15 07:35:41;;;;;;;8.10;5.60;;;;;;;28.37;100.00;100316.15;105856;1268;61363;-74
2023/08/15 07:38:08;;;;;;;12.20;6.80;;;;;;;28.49;100.00;100314.45;105006;1268;66127;-74
2023/08/15 07:40:35;;;;;;;6.40;3.20;;;;;;;28.61;100.00;100320.58;105424;1271;62575;-77
2023/08/15 07:43:01;;;;;;;6.80;3.30;;;;;;;28.73;100.00;100319.57;106235;1269;64253;-75
2023/08/15 07:45:28;;;;;;;7.40;3.40;;;;;;;28.84;100.00;100316.00;106429;1269;61391;-75
2023/08/15 07:47:58;;;;;;;10.40;3.30;;;;;;;28.92;100.00;100312.23;106430;1268;59312;-76
2023/08/15 07:50:27;;;;;;;11.50;3.70;;;;;;;29.01;100.00;100314.49;106267;1268;66902;-75
2023/08/15 07:52:54;;;;;;;6.90;3.60;;;;;;;29.12;100.00;100318.80;106080;1268;62324;-74
2023/08/15 07:55:20;;;;;;;11.30;3.70;;;;;;;29.23;100.00;100323.12;105329;1268;62569;-76
2023/08/15 07:57:47;;;;;;;9.70;3.30;;;;;;;29.35;100.00;100320.35;106203;1271;61068;-75
2023/08/15 08:00:14;;;;;;;5.10;2.60;;;;;;;29.46;100.00;100317.02;106165;1268;61238;-76
2023/08/15 08:02:46;;;;;;;8.70;3.00;;;;;;;29.54;100.00;100314.95;106187;1268;66600;-75
2023/08/15 08:05:15;;;;;;;8.80;2.80;;;;;;;29.59;100.00;100311.14;106128;1267;62479;-76
2023/08/15 08:07:43;;;;;;;10.90;2.80;;;;;;;29.66;100.00;100308.71;105937;1270;63915;-75
2023/08/15 08:10:10;;;;;;;11.30;2.70;;;;;;;29.71;100.00;100309.05;106757;1268;61356;-74
2023/08/15 08:12:37;;;;;;;5.80;2.90;;;;;;;29.74;100.00;100309.90;106219;1267;61300;-76
2023/08/15 08:15:04;;;;;;;7.90;2.90;;;;;;;29.79;100.00;100311.48;106330;1269;64697;-76
2023/08/15 08:17:31;;;;;;;6.20;2.90;;;;;;;29.90;100.00;100315.13;106161;1267;62348;-75
2023/08/15 08:19:58;;;;;;;8.30;3.20;;;;;;;30.00;100.00;100312.95;106070;1269;63786;-75
2023/08/15 08:22:25;;;;;;;11.60;2.70;;;;;;;30.10;100.00;100314.67;105821;1269;61342;-75
2023/08/15 08:24:53;;;;;;;9.60;2.90;;;;;;;30.14;100.00;100315.70;106186;1267;61202;-76
2023/08/15 08:27:20;;;;;;;9.00;3.10;;;;;;;30.11;100.00;100316.77;105650;1271;66165;-76
2023/08/15 08:29:47;;;;;;;9.90;3.00;;;;;;;30.08;100.00;100316.54;106004;1268;64318;-76
2023/08/15 08:32:14;;;;;;;7.00;2.90;;;;;;;30.11;100.00;100319.29;106672;1269;63906;-76
2023/08/15 08:34:41;;;;;;;14.60;2.90;;;;;;;30.20;100.00;100315.04;105956;1269;61369;-75
2023/08/15 08:37:08;;;;;;;9.10;2.80;;;;;;;30.34;100.00;100316.09;105744;1268;61269;-75
2023/08/15 08:39:34;;;;;;;4.70;2.70;;;;;;;30.51;100.00;100314.91;106188;1271;64825;-76
2023/08/15 08:42:01;;;;;;;6.70;2.70;;;;;;;30.67;100.00;100313.00;106321;1269;62584;-75
2023/08/15 08:44:28;;;;;;;7.20;2.80;;;;;;;30.83;100.00;100312.41;106140;1272;63948;-75
2023/08/15 08:46:55;;;;;;;13.30;2.60;;;;;;;30.94;100.00;100306.72;106039;1269;61224;-76
2023/08/15 08:49:22;;;;;;;9.30;3.30;;;;;;;31.04;100.00;100305.23;105625;1269;61249;-76
2023/08/15 08:51:48;;;;;;;9.80;2.90;;;;;;;31.16;100.00;100304.16;105433;1269;64642;-76
2023/08/15 08:54:15;;;;;;;10.90;2.50;;;;;;;31.27;100.00;100300.95;106159;1269;61365;-75
2023/08/15 08:56:45;;;;;;;4.60;2.30;;;;;;;31.37;100.00;100297.55;105957;1271;62772;-75
2023/08/15 08:59:12;;;;;;;4.80;2.40;;;;;;;31.45;100.00;100292.80;105921;1269;61325;-76
2023/08/15 09:01:39;;;;;;;3.70;2.20;;;;;;;31.53;100.00;100290.30;106129;1274;61303;-75
2023/08/15 09:04:06;;;;;;;5.40;2.30;;;;;;;31.61;100.00;100292.20;106145;1270;66363;-76
2023/08/15 09:06:32;;;;;;;6.70;2.40;;;;;;;31.70;100.00;100290.77;106528;1268;62234;-74
2023/08/15 09:08:59;;;;;;;5.30;2.10;;;;;;;31.80;100.00;100289.11;106473;1271;63945;-75
2023/08/15 09:11:32;;;;;;;4.50;2.40;;;;;;;31.90;100.00;100288.24;106405;1267;61248;-75
2023/08/15 09:14:01;;;;;;;9.00;2.40;;;;;;;32.01;100.00;100288.27;106015;1271;61321;-75
2023/08/15 09:16:29;;;;;;;14.70;2.80;;;;;;;32.11;100.00;100286.42;106075;1269;66171;-75
2023/08/15 09:18:56;;;;;;;9.00;2.50;;;;;;;32.18;100.00;100287.25;105915;1267;62299;-76
2023/08/15 09:21:26;;;;;;;4.50;2.50;;;;;;;32.25;100.00;100285.70;106229;1267;64187;-76
2023/08/15 09:23:53;;;;;;;9.30;2.80;;;;;;;32.33;100.00;100281.89;106003;1269;61207;-77
2023/08/15 09:26:20;;;;;;;9.30;3.00;;;;;;;32.42;100.00;100278.92;105639;1269;61299;-76
2023/08/15 09:28:47;;;;;;;4.70;2.30;;;;;;;32.47;100.00;100282.89;105287;1271;66047;-75
2023/08/15 09:31:14;;;;;;;5.70;2.70;;;;;;;32.52;100.00;100278.81;105316;1269;61273;-75
2023/08/15 09:33:40;;;;;;;10.80;2.30;;;;;;;32.60;100.00;100278.98;106154;1267;63957;-76
2023/08/15 09:36:08;;;;;;;6.60;2.40;;;;;;;32.63;100.00;100273.27;105492;1269;61171;-76
2023/08/15 09:38:38;;;;;;;9.60;2.50;;;;;;;32.64;100.00;100273.30;105223;1269;61293;-75
2023/08/15 09:41:05;;;;;;;5.30;2.00;;;;;;;32.67;100.00;100273.80;106052;1268;64566;-76
2023/08/15 09:43:32;;;;;;;4.30;2.10;;;;;;;32.72;100.00;100268.23;106137;1267;62627;-74
2023/08/15 09:45:59;;;;;;;10.60;2.40;;;;;;;32.78;100.00;100267.13;105604;1271;64132;-76
2023/08/15 09:48:27;;;;;;;4.30;2.10;;;;;;;32.81;91.22;100263.70;105868;1268;61140;-74
2023/08/15 09:50:55;;;;;;;5.60;2.20;;;;;;;32.72;88.49;100263.64;105974;1269;61277;-76
2023/08/15 09:53:22;;;;;;;4.30;2.10;;;;;;;32.66;91.11;100263.48;106049;1268;64572;-76
2023/08/15 09:55:49;;;;;;;6.90;2.30;;;;;;;32.61;97.93;100266.52;105989;1271;60931;-75
2023/08/15 09:58:19;;;;;;;5.70;2.20;;;;;;;32.60;97.33;100264.11;106429;1271;63946;-74
2023/08/15 10:00:48;;;;;;;4.10;2.00;;;;;;;32.65;94.12;100267.02;106397;1268;61160;-76
2023/08/15 10:03:29;;;;;;;5.70;2.20;;;;;;;32.66;89.68;100263.86;106125;1269;61375;-75
2023/08/15 10:05:56;;;;;;;2.50;2.10;;;;;;;32.68;96.74;100260.98;106239;1272;64626;-76
2023/08/15 10:08:23;;;;;;;6.40;2.20;;;;;;;32.75;94.39;100255.65;105973;1271;62332;-75
2023/08/15 10:10:51;;;;;;;10.70;2.50;;;;;;;32.83;91.78;100255.48;106358;1271;62627;-75
2023/08/15 10:13:26;;;;;;;6.60;2.50;;;;;;;32.90;89.58;100251.17;105829;1271;61308;-75
2023/08/15 10:15:53;;;;;;;8.80;2.10;;;;;;;32.99;90.77;100256.33;105888;1267;61264;-77
2023/08/15 10:18:19;;;;;;;3.20;2.20;;;;;;;33.09;96.06;100255.70;105416;1271;66892;-75
2023/08/15 10:20:49;;;;;;;8.50;2.40;;;;;;;33.17;97.24;100251.91;105523;1269;62308;-76
2023/08/15 10:23:31;;;;;;;10.40;2.50;;;;;;;33.24;98.72;100248.91;105678;1270;62533;-76
2023/08/15 10:25:58;;;;;;;4.90;2.10;;;;;;;33.34;99.27;100250.55;106429;1269;61333;-76
2023/08/15 10:28:26;;;;;;;2.70;2.00;;;;;;;33.44;100.00;100248.83;106009;1271;61286;-75
2023/08/15 10:30:53;;;;;;;4.20;2.50;;;;;;;33.55;100.00;100249.56;106323;1271;66081;-75
2023/08/15 10:33:25;;;;;;;9.00;2.60;;;;;;;33.64;96.82;100248.77;106367;1269;61640;-76
2023/08/15 10:36:06;;;;;;;5.50;2.30;;;;;;;33.74;95.86;100248.73;106312;1271;64123;-74
2023/08/15 10:38:41;;;;;;;6.60;2.20;;;;;;;33.83;84.60;100249.67;106589;1267;61268;-75
2023/08/15 10:41:15;;;;;;;3.70;2.30;;;;;;;33.82;73.62;100243.91;106374;1271;61196;-76
2023/08/15 10:43:47;;;;;;;5.90;2.30;;;;;;;33.65;68.37;100247.52;106732;1270;66004;-75
2023/08/15 10:46:15;;;;;;;9.20;2.50;;;;;;;33.38;70.61;100247.48;106517;1269;62635;-75
2023/08/15 10:48:49;;;;;;;5.40;2.30;;;;;;;33.14;71.35;100245.30;106548;1268;63940;-74
2023/08/15 10:51:23;;;;;;;8.50;2.50;;;;;;;33.02;75.87;100242.13;106234;1271;61166;-74
2023/08/15 10:53:51;;;;;;;5.50;2.50;;;;;;;33.07;83.72;100241.34;106464;1267;61259;-76
2023/08/15 10:56:19;;;;;;;6.50;2.80;;;;;;;33.18;78.83;100239.00;106438;1271;64447;-75
2023/08/15 10:58:46;;;;;;;4.20;2.00;;;;;;;33.28;77.33;100237.96;106046;1271;62609;-76
2023/08/15 11:01:19;;;;;;;5.00;2.50;;;;;;;33.39;76.29;100239.39;105666;1268;72658;-76
2023/08/15 11:03:47;;;;;;;5.60;2.70;;;;;;;33.51;74.18;100234.54;106508;1269;61309;-76
2023/08/15 11:06:14;;;;;;;4.90;2.30;;;;;;;33.62;75.76;100233.91;106346;1269;59978;-76
2023/08/15 11:08:47;;;;;;;5.30;2.20;;;;;;;33.74;78.46;100233.48;106415;1271;66058;-76